Time;durP1;ratioP1;P1;durP2;ratioP2;P2;SDS_P1;SDS_P2;PMS_P1;PMS_P2;Temp;Humidity;BMP_temperature;BMP_pressure;BME280_temperature;BME280_humidity;BME280_pressure;Samples;Min_cycle;Max_cycle;Signal;HPM_P1;HPM_P2
2021/06/28 00:25:35;;;;;;;24.20;12.73;;;;;;;;;;5113170;27;20121;-60
2021/06/28 01:25:38;;;;;;;36.30;19.15;;;;;;;;;;5058615;28;20118;-60
2021/06/28 01:28:06;;;;;;;37.30;20.80;;;;;;;;;;5060885;28;20501;-60
2021/06/28 01:30:33;;;;;;;34.00;19.75;;;;;;;;;;5059151;28;20053;-60
2021/06/28 01:32:59;;;;;;;38.78;21.30;;;;;;;;;;5058582;28;20072;-60
2021/06/28 03:26:35;;;;;;;15.70;10.30;;;;;;;;;;5080488;28;20115;-60
2021/06/28 07:27:35;;;;;;;20.00;6.93;;;;;;;;;;5060784;27;20433;-60
2021/06/28 07:30:04;;;;;;;18.20;6.40;;;;;;;;;;5061291;28;20033;-60
2021/06/28 07:32:30;;;;;;;17.27;6.60;;;;;;;;;;5060883;28;20052;-61
2021/06/28 07:34:58;;;;;;;19.10;5.85;;;;;;;;;;5060477;28;20045;-60
2021/06/28 07:37:25;;;;;;;19.00;6.32;;;;;;;;;;5058175;28;20082;-60
2021/06/28 07:39:52;;;;;;;17.23;5.75;;;;;;;;;;5055758;28;20052;-61
2021/06/28 07:42:19;;;;;;;21.02;5.25;;;;;;;;;;5057263;28;20365;-60
2021/06/28 08:27:31;;;;;;;15.45;5.18;;;;;;;;;;5080819;27;20397;-60
2021/06/28 09:27:43;;;;;;;12.75;4.65;;;;;;;;;;5049599;28;20396;-60
2021/06/28 09:30:19;;;;;;;13.90;5.50;;;;;;;;;;5048188;28;20091;-60
2021/06/28 09:32:50;;;;;;;16.33;5.03;;;;;;;;;;5049093;28;20147;-61
2021/06/28 09:35:27;;;;;;;15.02;4.97;;;;;;;;;;5047285;28;20519;-61
2021/06/28 09:37:54;;;;;;;11.48;4.53;;;;;;;;;;5045205;28;20134;-61
2021/06/28 09:40:21;;;;;;;;;;;;;;;;;;5046860;28;20412;-61
2021/06/28 09:42:48;;;;;;;10.27;4.97;;;;;;;;;;5051165;28;20468;-59
2021/06/28 09:45:16;;;;;;;13.75;4.20;;;;;;;;;;5039161;28;20042;-59
2021/06/28 09:47:44;;;;;;;13.77;4.85;;;;;;;;;;5042877;28;20049;-59
2021/06/28 09:50:12;;;;;;;10.68;4.60;;;;;;;;;;5046044;28;20033;-59
2021/06/28 09:52:43;;;;;;;11.63;4.25;;;;;;;;;;5039334;28;20049;-59
2021/06/28 09:55:33;;;;;;;18.08;4.22;;;;;;;;;;5043062;28;20102;-58
2021/06/28 09:58:14;;;;;;;10.90;3.97;;;;;;;;;;5038086;28;20052;-59
2021/06/28 10:00:45;;;;;;;11.30;4.40;;;;;;;;;;5042933;28;20053;-59
2021/06/28 10:03:28;;;;;;;12.05;4.45;;;;;;;;;;5038098;28;20037;-59
2021/06/28 10:06:02;;;;;;;11.65;4.25;;;;;;;;;;5043025;28;20042;-60
2021/06/28 10:08:33;;;;;;;11.35;4.28;;;;;;;;;;5038183;28;20041;-59
2021/06/28 10:11:29;;;;;;;22.20;4.28;;;;;;;;;;5051619;28;20055;-59
2021/06/28 10:14:00;;;;;;;16.60;4.78;;;;;;;;;;5046377;28;20049;-59
2021/06/28 10:16:30;;;;;;;14.27;5.00;;;;;;;;;;5046184;28;20493;-59
2021/06/28 10:18:57;;;;;;;12.00;4.72;;;;;;;;;;5045258;28;20518;-59
2021/06/28 10:21:24;;;;;;;19.02;5.45;;;;;;;;;;5048465;28;20038;-59
2021/06/28 10:23:51;;;;;;;;;;;;;;;;;;5050445;28;20041;-59
2021/06/28 10:26:18;;;;;;;13.65;4.70;;;;;;;;;;5043534;28;19991;-59
2021/06/28 10:28:45;;;;;;;;;;;;;;;;;;5046493;28;20056;-59
2021/06/28 10:31:12;;;;;;;12.57;5.03;;;;;;;;;;5052952;28;19928;-59
2021/06/28 10:33:41;;;;;;;18.38;5.65;;;;;;;;;;5046694;28;20132;-59
2021/06/28 10:36:11;;;;;;;14.23;4.63;;;;;;;;;;5042129;28;20103;-59
2021/06/28 10:38:43;;;;;;;11.45;5.18;;;;;;;;;;5026864;28;20072;-59
2021/06/28 10:41:10;;;;;;;17.98;5.60;;;;;;;;;;5027662;28;20041;-59
2021/06/28 10:43:38;;;;;;;15.70;5.13;;;;;;;;;;5029121;28;20111;-59
2021/06/28 10:46:08;;;;;;;11.35;5.43;;;;;;;;;;5025798;28;20109;-59
2021/06/28 10:48:45;;;;;;;12.98;5.10;;;;;;;;;;5027405;28;20069;-59
2021/06/28 10:51:12;;;;;;;21.15;6.22;;;;;;;;;;5028930;28;20171;-59
2021/06/28 10:53:42;;;;;;;12.65;5.22;;;;;;;;;;5027254;28;20045;-59
2021/06/28 10:56:26;;;;;;;12.13;5.78;;;;;;;;;;5026991;28;20058;-59
2021/06/28 10:58:54;;;;;;;12.98;5.28;;;;;;;;;;5032423;28;20066;-59
2021/06/28 11:01:36;;;;;;;16.10;5.85;;;;;;;;;;5022957;28;20049;-59
2021/06/28 11:04:05;;;;;;;10.70;5.28;;;;;;;;;;5019555;28;20549;-59
2021/06/28 11:06:31;;;;;;;15.40;5.47;;;;;;;;;;5032697;28;20517;-59
2021/06/28 11:09:06;;;;;;;11.07;4.88;;;;;;;;;;5037367;28;20076;-59
2021/06/28 11:11:44;;;;;;;14.75;5.38;;;;;;;;;;5032487;28;20051;-59
2021/06/28 11:14:11;;;;;;;19.08;6.22;;;;;;;;;;5033373;28;20052;-60
2021/06/28 11:16:38;;;;;;;13.05;5.22;;;;;;;;;;5040930;28;20049;-59
2021/06/28 11:19:24;;;;;;;18.42;6.82;;;;;;;;;;5035809;28;20047;-59
2021/06/28 11:21:51;;;;;;;17.95;7.32;;;;;;;;;;5033387;28;20041;-59
2021/06/28 11:24:30;;;;;;;22.35;7.40;;;;;;;;;;5034822;28;20088;-59
2021/06/28 11:27:15;;;;;;;20.48;7.40;;;;;;;;;;5035784;28;20053;-59
2021/06/28 11:29:46;;;;;;;20.05;7.65;;;;;;;;;;5025101;28;20049;-59
2021/06/28 11:32:25;;;;;;;21.77;7.13;;;;;;;;;;5032740;28;20037;-59
2021/06/28 11:34:52;;;;;;;17.92;7.65;;;;;;;;;;5029224;28;20041;-59
2021/06/28 11:37:20;;;;;;;18.35;7.53;;;;;;;;;;5024950;28;20517;-59
2021/06/28 11:39:55;;;;;;;19.38;8.38;;;;;;;;;;5029742;28;20041;-59
2021/06/28 11:42:37;;;;;;;21.85;7.40;;;;;;;;;;5025116;28;20041;-59
2021/06/28 11:45:04;;;;;;;17.10;7.55;;;;;;;;;;5024331;28;20076;-59
2021/06/28 11:47:48;;;;;;;17.70;7.28;;;;;;;;;;5023263;28;20057;-59
2021/06/28 11:50:24;;;;;;;16.42;7.20;;;;;;;;;;5048403;28;20095;-59
2021/06/28 11:52:59;;;;;;;23.67;8.35;;;;;;;;;;5023250;28;20409;-59
2021/06/28 11:55:30;;;;;;;22.33;8.23;;;;;;;;;;5023011;28;20104;-59
2021/06/28 11:58:00;;;;;;;15.43;7.35;;;;;;;;;;5037991;28;20041;-59
2021/06/28 12:00:46;;;;;;;15.65;7.65;;;;;;;;;;5031331;28;20056;-59
2021/06/28 12:03:14;;;;;;;;;;;;;;;;;;5025709;28;20037;-59
2021/06/28 12:05:41;;;;;;;16.70;7.20;;;;;;;;;;5037596;28;19924;-59
2021/06/28 12:08:09;;;;;;;20.38;7.45;;;;;;;;;;5032108;28;20049;-59
2021/06/28 12:10:36;;;;;;;20.13;8.77;;;;;;;;;;5033938;28;20045;-59
2021/06/28 12:13:03;;;;;;;;;;;;;;;;;;5039229;28;20041;-59
2021/06/28 12:15:30;;;;;;;19.15;7.70;;;;;;;;;;5040528;28;20297;-59
2021/06/28 12:18:03;;;;;;;15.95;7.53;;;;;;;;;;5034172;28;20033;-59
2021/06/28 12:20:34;;;;;;;20.42;7.80;;;;;;;;;;5025835;28;20095;-59
2021/06/28 12:23:08;;;;;;;19.58;8.20;;;;;;;;;;5033231;28;20124;-59
2021/06/28 12:25:35;;;;;;;21.13;7.88;;;;;;;;;;5020359;28;20037;-59
2021/06/28 12:28:02;;;;;;;16.92;7.82;;;;;;;;;;5026934;28;20053;-59
2021/06/28 12:30:31;;;;;;;17.30;7.35;;;;;;;;;;5026487;28;20043;-59
2021/06/28 12:33:01;;;;;;;;;;;;;;;;;;5032255;28;20052;-59
2021/06/28 12:35:30;;;;;;;17.55;7.85;;;;;;;;;;5026257;28;20502;-59
2021/06/28 12:37:59;;;;;;;13.68;6.93;;;;;;;;;;5022788;28;20553;-59
2021/06/28 12:40:31;;;;;;;15.77;7.07;;;;;;;;;;5024997;28;20056;-59
2021/06/28 12:43:01;;;;;;;21.38;8.07;;;;;;;;;;5028653;28;20049;-59
2021/06/28 12:45:30;;;;;;;18.98;8.02;;;;;;;;;;5028979;28;20041;-59
2021/06/28 12:47:57;;;;;;;18.88;8.32;;;;;;;;;;5020537;28;20054;-59
2021/06/28 12:50:27;;;;;;;17.23;7.65;;;;;;;;;;5021123;28;20080;-59
2021/06/28 12:52:54;;;;;;;17.92;7.53;;;;;;;;;;5018974;28;20048;-59
2021/06/28 12:55:21;;;;;;;15.65;6.60;;;;;;;;;;5021821;28;20045;-59
2021/06/28 12:58:13;;;;;;;15.80;6.78;;;;;;;;;;5027795;28;20501;-59
2021/06/28 13:00:43;;;;;;;16.38;6.50;;;;;;;;;;5026800;28;20042;-59
2021/06/28 13:03:14;;;;;;;18.05;6.40;;;;;;;;;;5018928;28;20040;-60
2021/06/28 13:05:42;;;;;;;16.55;6.65;;;;;;;;;;5021153;28;20048;-59
2021/06/28 13:08:09;;;;;;;21.50;7.22;;;;;;;;;;5022682;28;20045;-59
2021/06/28 13:10:36;;;;;;;16.98;7.28;;;;;;;;;;5028286;28;20071;-59
2021/06/28 13:13:17;;;;;;;18.88;7.50;;;;;;;;;;5024859;28;20034;-59
2021/06/28 13:16:02;;;;;;;17.52;7.55;;;;;;;;;;5033614;28;20550;-60
2021/06/28 13:18:29;;;;;;;17.45;7.10;;;;;;;;;;5030106;28;20040;-59
2021/06/28 13:20:56;;;;;;;16.27;7.28;;;;;;;;;;5031403;28;20041;-59
2021/06/28 13:23:23;;;;;;;15.77;7.43;;;;;;;;;;5019321;28;20041;-59
2021/06/28 13:25:49;;;;;;;;;;;;;;;;;;5027076;28;20290;-59
2021/06/28 13:28:19;;;;;;;18.88;7.28;;;;;;;;;;5031621;28;19964;-59
2021/06/28 13:30:46;;;;;;;14.43;6.95;;;;;;;;;;5024895;28;20525;-59
2021/06/28 13:33:13;;;;;;;17.58;7.50;;;;;;;;;;5022121;28;20037;-60
2021/06/28 13:35:43;;;;;;;17.80;7.35;;;;;;;;;;5024988;28;20127;-59
2021/06/28 13:38:16;;;;;;;18.08;7.25;;;;;;;;;;5029723;28;20099;-59
2021/06/28 13:40:55;;;;;;;16.38;6.50;;;;;;;;;;5019161;28;20096;-59
2021/06/28 13:43:22;;;;;;;16.58;6.90;;;;;;;;;;5021616;28;20140;-59
2021/06/28 13:45:51;;;;;;;15.48;7.07;;;;;;;;;;5024493;28;20556;-59
2021/06/28 13:48:18;;;;;;;15.20;7.15;;;;;;;;;;5016585;28;20107;-59
2021/06/28 13:50:48;;;;;;;14.43;6.47;;;;;;;;;;5014551;28;20046;-59
2021/06/28 13:53:20;;;;;;;16.00;5.85;;;;;;;;;;5029752;28;20115;-59
2021/06/28 13:55:50;;;;;;;9.75;5.55;;;;;;;;;;5027807;28;20559;-59
2021/06/28 13:58:20;;;;;;;14.95;5.45;;;;;;;;;;5032663;28;20052;-59
2021/06/28 14:00:49;;;;;;;11.70;5.93;;;;;;;;;;5026225;28;20125;-59
2021/06/28 14:03:15;;;;;;;;;;;;;;;;;;5029555;28;20039;-59
2021/06/28 14:05:43;;;;;;;12.68;5.38;;;;;;;;;;5035159;28;19924;-59
2021/06/28 14:08:12;;;;;;;9.85;5.35;;;;;;;;;;5031444;28;20891;-59
2021/06/28 14:10:48;;;;;;;14.57;5.97;;;;;;;;;;5023505;28;20144;-59
2021/06/28 14:13:15;;;;;;;12.77;5.88;;;;;;;;;;5032116;28;20509;-59
2021/06/28 14:15:43;;;;;;;12.88;4.95;;;;;;;;;;5025517;28;20054;-59
2021/06/28 14:18:10;;;;;;;11.17;4.43;;;;;;;;;;5031521;28;20041;-59
2021/06/28 14:20:38;;;;;;;11.13;4.60;;;;;;;;;;5036086;28;20284;-59
2021/06/28 14:23:06;;;;;;;11.40;4.25;;;;;;;;;;5031963;28;20053;-59
2021/06/28 14:25:32;;;;;;;9.35;4.18;;;;;;;;;;5030355;28;20115;-59
2021/06/28 14:28:01;;;;;;;9.07;4.40;;;;;;;;;;5027549;28;20054;-59
2021/06/28 14:30:28;;;;;;;10.35;4.78;;;;;;;;;;5022427;28;20042;-59
2021/06/28 14:33:00;;;;;;;9.48;5.00;;;;;;;;;;5027519;28;20489;-59
2021/06/28 14:35:31;;;;;;;8.77;3.92;;;;;;;;;;5025322;28;20049;-59
2021/06/28 14:37:59;;;;;;;13.38;4.60;;;;;;;;;;5025733;28;20118;-59
2021/06/28 14:40:26;;;;;;;8.73;4.45;;;;;;;;;;5028130;28;20041;-59
2021/06/28 14:42:54;;;;;;;13.38;4.45;;;;;;;;;;5042734;28;20042;-59
2021/06/28 14:45:21;;;;;;;9.80;4.50;;;;;;;;;;5021254;28;20136;-59
2021/06/28 14:47:47;;;;;;;12.20;4.75;;;;;;;;;;5032008;28;20366;-59
2021/06/28 14:50:15;;;;;;;25.08;4.70;;;;;;;;;;5033707;28;20536;-59
2021/06/28 14:52:41;;;;;;;12.65;4.00;;;;;;;;;;5039095;28;20037;-59
2021/06/28 14:55:09;;;;;;;10.68;4.10;;;;;;;;;;5034455;28;20401;-59
2021/06/28 14:57:36;;;;;;;10.50;3.85;;;;;;;;;;5035493;28;20052;-59
2021/06/28 15:00:04;;;;;;;9.70;4.18;;;;;;;;;;5030730;28;20482;-59
2021/06/28 15:02:31;;;;;;;7.97;3.83;;;;;;;;;;5032115;28;20120;-59
2021/06/28 15:04:59;;;;;;;7.72;3.60;;;;;;;;;;5028412;28;20052;-59
2021/06/28 15:07:26;;;;;;;10.07;3.97;;;;;;;;;;5030703;28;20045;-59
2021/06/28 15:09:54;;;;;;;10.70;4.30;;;;;;;;;;5027741;28;20047;-59
2021/06/28 15:12:21;;;;;;;7.03;3.78;;;;;;;;;;5031894;28;20107;-59
2021/06/28 15:14:48;;;;;;;12.95;3.97;;;;;;;;;;5021773;28;20053;-59
2021/06/28 15:17:15;;;;;;;8.73;3.85;;;;;;;;;;5033179;28;20044;-59
2021/06/28 15:19:42;;;;;;;10.20;3.70;;;;;;;;;;5033114;28;20072;-59
2021/06/28 15:22:09;;;;;;;9.63;3.80;;;;;;;;;;5027384;28;20045;-59
2021/06/28 15:24:37;;;;;;;10.20;3.83;;;;;;;;;;5022970;28;20124;-59
2021/06/28 15:27:04;;;;;;;10.13;4.35;;;;;;;;;;5021895;28;20049;-59
2021/06/28 15:29:38;;;;;;;11.73;4.43;;;;;;;;;;5025860;28;20061;-61
2021/06/28 15:32:08;;;;;;;18.30;4.72;;;;;;;;;;5030406;28;20049;-59
2021/06/28 15:34:36;;;;;;;13.43;4.07;;;;;;;;;;5029099;28;20119;-59
2021/06/28 15:37:03;;;;;;;13.20;4.68;;;;;;;;;;5022168;28;20080;-59
2021/06/28 15:39:30;;;;;;;13.45;4.75;;;;;;;;;;5028322;28;20044;-59
2021/06/28 15:41:57;;;;;;;14.05;4.45;;;;;;;;;;5023246;28;21111;-59
2021/06/28 15:44:24;;;;;;;13.07;4.90;;;;;;;;;;5027040;28;20441;-59
2021/06/28 15:46:51;;;;;;;11.65;4.97;;;;;;;;;;5031894;28;20038;-59
2021/06/28 15:49:20;;;;;;;10.27;4.57;;;;;;;;;;5028628;28;20046;-59
2021/06/28 15:51:46;;;;;;;15.75;4.78;;;;;;;;;;5023591;28;20064;-59
2021/06/28 15:54:15;;;;;;;14.80;4.57;;;;;;;;;;5033737;28;20042;-59
2021/06/28 15:56:42;;;;;;;8.32;4.15;;;;;;;;;;5034921;28;20047;-59
2021/06/28 15:59:10;;;;;;;13.52;4.68;;;;;;;;;;5025643;28;20050;-59
2021/06/28 16:01:38;;;;;;;12.63;4.90;;;;;;;;;;5030369;28;20102;-59
2021/06/28 16:04:05;;;;;;;11.50;5.05;;;;;;;;;;5030078;28;20120;-59
2021/06/28 16:06:31;;;;;;;11.45;4.38;;;;;;;;;;5031044;28;20052;-59
2021/06/28 16:08:59;;;;;;;13.20;4.57;;;;;;;;;;5029554;28;20049;-59
2021/06/28 16:11:27;;;;;;;14.57;4.82;;;;;;;;;;5026952;28;20037;-59
2021/06/28 16:13:53;;;;;;;13.55;5.03;;;;;;;;;;5025574;28;20532;-59
2021/06/28 16:16:20;;;;;;;14.52;4.88;;;;;;;;;;5034526;28;20181;-59
2021/06/28 20:31:45;;;;;;;20.42;8.32;;;;;;;;;;5084541;27;20426;-60
2021/06/28 21:31:58;;;;;;;24.80;8.88;;;;;;;;;;5088466;27;20367;-60
2021/06/28 21:34:27;;;;;;;18.63;7.95;;;;;;;;;;5063111;28;20045;-60
2021/06/28 21:36:54;;;;;;;22.63;8.38;;;;;;;;;;5037546;28;20521;-60
2021/06/28 21:39:20;;;;;;;20.55;8.25;;;;;;;;;;5035391;28;20096;-61
